createdAt,value
2022-11-07T00:01:09.960Z,100542.44
2022-11-07T00:03:41.786Z,100537.16
2022-11-07T00:06:13.294Z,100536.34
2022-11-07T00:08:45.959Z,100541.22
2022-11-07T00:11:17.461Z,100530.03
2022-11-07T00:13:49.278Z,100544.09
2022-11-07T00:16:20.877Z,100539.81
2022-11-07T00:18:52.794Z,100528.25
2022-11-07T00:21:24.296Z,100527.03
2022-11-07T00:23:56.254Z,100516.00
2022-11-07T00:26:27.742Z,100518.66
2022-11-07T00:28:59.761Z,100512.34
2022-11-07T00:31:31.257Z,100511.09
2022-11-07T00:34:03.117Z,100515.16
2022-11-07T00:36:34.623Z,100521.47
2022-11-07T00:39:06.489Z,100520.25
2022-11-07T00:41:38.188Z,100511.06
2022-11-07T00:44:10.214Z,100510.88
2022-11-07T00:46:41.709Z,100505.38
2022-11-07T00:49:13.602Z,100514.75
2022-11-07T00:51:45.137Z,100497.66
2022-11-07T00:54:16.943Z,100489.91
2022-11-07T00:56:48.453Z,100497.66
2022-11-07T00:59:20.221Z,100480.75
2022-11-07T01:01:51.952Z,100491.16
2022-11-07T01:04:42.772Z,100494.41
2022-11-07T01:07:14.291Z,100497.69
2022-11-07T01:09:46.166Z,100501.81
2022-11-07T01:12:17.667Z,100509.09
2022-11-07T01:14:49.511Z,100491.16
2022-11-07T01:17:21.020Z,100501.16
2022-11-07T01:19:52.957Z,100505.06
2022-11-07T01:22:24.441Z,100510.19
2022-11-07T01:24:56.261Z,100510.59
2022-11-07T01:27:27.775Z,100500.59
2022-11-07T01:30:00.146Z,100498.56
2022-11-07T01:32:31.641Z,100502.03
2022-11-07T01:35:03.320Z,100494.50
2022-11-07T01:37:34.806Z,100489.00
2022-11-07T01:40:06.636Z,100494.88
2022-11-07T01:42:38.145Z,100482.66
2022-11-07T01:45:09.967Z,100486.53
2022-11-07T01:47:41.476Z,100494.88
2022-11-07T01:50:13.439Z,100500.19
2022-11-07T01:52:44.980Z,100497.09
2022-11-07T01:55:16.793Z,100501.16
2022-11-07T01:57:48.918Z,100501.16
2022-11-07T02:00:20.720Z,100500.53
2022-11-07T02:02:52.906Z,100501.00
2022-11-07T02:05:24.492Z,100497.69
2022-11-07T02:07:56.308Z,100493.41
2022-11-07T02:10:27.806Z,100498.50
2022-11-07T02:12:59.611Z,100493.88
2022-11-07T02:15:31.093Z,100500.59
2022-11-07T02:18:02.889Z,100494.47
2022-11-07T02:20:34.369Z,100491.81
2022-11-07T02:23:06.237Z,100491.63
2022-11-07T02:25:37.746Z,100492.44
2022-11-07T02:28:09.708Z,100492.44
2022-11-07T02:30:41.253Z,100483.88
2022-11-07T02:33:13.394Z,100494.22
2022-11-07T02:35:45.078Z,100487.09
2022-11-07T02:38:16.901Z,100486.28
2022-11-07T02:40:48.402Z,100480.78
2022-11-07T02:43:20.103Z,100486.94
2022-11-07T02:45:51.656Z,100492.03
2022-11-07T02:48:23.630Z,100491.44
2022-11-07T02:50:55.139Z,100491.03
2022-11-07T02:53:26.913Z,100490.41
2022-11-07T02:55:58.438Z,100487.97
2022-11-07T02:58:30.297Z,100486.75
2022-11-07T03:01:11.089Z,100488.00
2022-11-07T03:03:42.940Z,100492.88
2022-11-07T03:06:14.445Z,100497.16
2022-11-07T03:08:46.287Z,100500.63
2022-11-07T03:11:19.773Z,100499.03
2022-11-07T03:13:51.912Z,100492.09
2022-11-07T03:16:23.401Z,100491.09
2022-11-07T03:18:54.976Z,100499.44
2022-11-07T03:21:26.472Z,100501.50
2022-11-07T03:23:58.392Z,100506.78
2022-11-07T03:26:29.915Z,100510.06
2022-11-07T03:29:01.950Z,100514.78
2022-11-07T03:31:33.454Z,100520.50
2022-11-07T03:34:05.283Z,100520.06
2022-11-07T03:36:36.828Z,100527.63
2022-11-07T03:39:08.795Z,100535.78
2022-11-07T03:41:40.316Z,100538.22
2022-11-07T03:44:12.034Z,100539.03
2022-11-07T03:46:43.561Z,100544.13
2022-11-07T03:49:15.411Z,100543.13
2022-11-07T03:51:46.971Z,100551.69
2022-11-07T03:54:18.829Z,100550.88
2022-11-07T03:56:50.349Z,100540.66
2022-11-07T03:59:22.273Z,100543.75
2022-11-07T04:01:53.867Z,100545.38
2022-11-07T04:04:25.703Z,100541.09
2022-11-07T04:06:57.213Z,100545.56
2022-11-07T04:09:29.172Z,100547.59
2022-11-07T04:12:19.533Z,100549.88
2022-11-07T04:15:10.026Z,100545.56
2022-11-07T04:17:41.522Z,100541.50
2022-11-07T04:20:13.431Z,100548.44
2022-11-07T04:22:44.928Z,100540.69
2022-11-07T04:25:16.795Z,100546.19
2022-11-07T04:27:48.302Z,100555.78
2022-11-07T04:30:20.281Z,100549.88
2022-11-07T04:32:52.139Z,100552.13
2022-11-07T04:35:23.640Z,100552.50
2022-11-07T04:37:55.485Z,100557.22
2022-11-07T04:40:27.036Z,100556.59
2022-11-07T04:42:58.858Z,100554.34
2022-11-07T04:45:30.445Z,100560.69
2022-11-07T04:48:02.262Z,100562.09
2022-11-07T04:50:33.773Z,100566.00
2022-11-07T04:53:05.907Z,100572.13
2022-11-07T04:55:37.448Z,100566.00
2022-11-07T04:58:09.375Z,100572.94
2022-11-07T05:00:40.922Z,100580.28
2022-11-07T05:03:13.003Z,100574.56
2022-11-07T05:05:44.843Z,100588.44
2022-11-07T05:08:16.805Z,100588.44
2022-11-07T05:10:48.276Z,100588.44
2022-11-07T05:13:20.147Z,100588.03
2022-11-07T05:15:51.701Z,100592.53
2022-11-07T05:18:25.352Z,100585.16
2022-11-07T05:20:56.898Z,100589.66
2022-11-07T05:23:28.865Z,100589.25
2022-11-07T05:26:00.369Z,100585.56
2022-11-07T05:28:38.642Z,100587.63
2022-11-07T05:31:11.145Z,100587.81
2022-11-07T05:33:42.967Z,100588.22
2022-11-07T05:36:14.492Z,100598.03
2022-11-07T05:38:46.335Z,100596.19
2022-11-07T05:41:17.853Z,100606.81
2022-11-07T05:43:49.789Z,100601.28
2022-11-07T05:46:21.378Z,100603.34
2022-11-07T05:48:56.657Z,100604.34
2022-11-07T05:51:32.477Z,100605.56
2022-11-07T05:54:03.963Z,100607.22
2022-11-07T05:56:37.645Z,100615.38
2022-11-07T05:59:09.144Z,100613.13
2022-11-07T06:01:40.908Z,100613.34
2022-11-07T06:04:12.495Z,100616.41
2022-11-07T06:06:44.337Z,100620.69
2022-11-07T06:09:15.880Z,100623.97
2022-11-07T06:11:47.686Z,100621.53
2022-11-07T06:14:19.186Z,100623.78
2022-11-07T06:16:50.983Z,100629.69
2022-11-07T06:19:22.505Z,100633.16
2022-11-07T06:21:54.308Z,100631.72
2022-11-07T06:24:25.811Z,100641.94
2022-11-07T06:26:57.804Z,100638.69
2022-11-07T06:29:29.326Z,100635.22
2022-11-07T06:32:01.197Z,100630.09
2022-11-07T06:34:32.762Z,100635.59
2022-11-07T06:37:04.732Z,100635.19
2022-11-07T06:39:36.259Z,100638.06
2022-11-07T06:42:08.095Z,100643.97
2022-11-07T06:44:39.598Z,100644.19
2022-11-07T06:47:11.415Z,100647.22
2022-11-07T06:49:42.921Z,100651.53
2022-11-07T06:52:14.918Z,100643.97
2022-11-07T06:54:46.443Z,100648.06
2022-11-07T06:57:18.269Z,100646.63
2022-11-07T06:59:51.915Z,100650.09
2022-11-07T07:02:44.338Z,100654.81
2022-11-07T07:05:20.795Z,100653.78
2022-11-07T07:07:52.999Z,100664.41
2022-11-07T07:10:25.302Z,100661.53
2022-11-07T07:12:57.408Z,100671.13
2022-11-07T07:15:29.132Z,100679.09
2022-11-07T07:18:01.308Z,100673.38
2022-11-07T07:20:32.811Z,100672.78
2022-11-07T07:23:05.868Z,100673.56
2022-11-07T07:25:37.503Z,100678.03
2022-11-07T07:28:09.233Z,100677.78
2022-11-07T07:30:40.780Z,100680.03
2022-11-07T07:33:12.705Z,100676.50
2022-11-07T07:35:44.416Z,100677.97
2022-11-07T07:38:16.330Z,100672.22
2022-11-07T07:40:47.882Z,100671.19
2022-11-07T07:43:19.919Z,100674.81
2022-11-07T07:45:51.513Z,100672.13
2022-11-07T07:48:23.353Z,100669.25
2022-11-07T07:50:54.895Z,100663.56
2022-11-07T07:53:26.761Z,100668.66
2022-11-07T07:55:58.341Z,100676.00
2022-11-07T07:58:30.153Z,100674.59
2022-11-07T08:01:01.778Z,100666.91
2022-11-07T08:03:57.737Z,100669.31
2022-11-07T08:06:25.364Z,100679.13
2022-11-07T08:08:57.228Z,100668.00
2022-11-07T08:11:28.745Z,100668.34
2022-11-07T08:14:01.772Z,100674.03
2022-11-07T08:16:33.501Z,100682.94
2022-11-07T08:19:05.639Z,100679.63
2022-11-07T08:21:37.781Z,100674.66
2022-11-07T08:24:09.270Z,100679.63
2022-11-07T08:26:40.828Z,100689.25
2022-11-07T08:29:12.458Z,100682.03
2022-11-07T08:31:44.324Z,100673.84
2022-11-07T08:34:15.809Z,100678.69
2022-11-07T08:36:47.384Z,100672.56
2022-11-07T08:39:18.939Z,100677.59
2022-11-07T08:41:50.831Z,100681.00
2022-11-07T08:44:22.312Z,100689.69
2022-11-07T08:46:54.326Z,100676.00
2022-11-07T08:49:26.111Z,100685.25
2022-11-07T08:51:58.368Z,100688.63
2022-11-07T08:54:29.977Z,100688.41
2022-11-07T08:57:01.805Z,100694.91
2022-11-07T08:59:33.315Z,100690.06
2022-11-07T09:02:47.577Z,100686.78
2022-11-07T09:04:56.649Z,100686.28
2022-11-07T09:07:28.530Z,100685.94
2022-11-07T09:10:00.025Z,100693.59
2022-11-07T09:12:31.909Z,100693.19
2022-11-07T09:15:03.456Z,100691.47
2022-11-07T09:17:35.264Z,100690.69
2022-11-07T09:20:06.744Z,100696.72
2022-11-07T09:22:38.503Z,100697.06
2022-11-07T09:25:10.057Z,100701.00
2022-11-07T09:27:42.055Z,100700.97
2022-11-07T09:30:13.572Z,100701.22
2022-11-07T09:32:46.043Z,100692.81
2022-11-07T09:35:17.723Z,100700.97
2022-11-07T09:37:49.527Z,100697.50
2022-11-07T09:40:21.058Z,100701.31
2022-11-07T09:42:53.025Z,100700.53
2022-11-07T09:45:24.526Z,100707.56
2022-11-07T09:47:56.379Z,100705.66
2022-11-07T09:50:27.883Z,100707.84
2022-11-07T09:52:59.838Z,100710.84
2022-11-07T09:55:31.337Z,100701.09
2022-11-07T09:58:03.182Z,100697.84
2022-11-07T10:00:34.862Z,100696.88
2022-11-07T10:03:06.736Z,100700.03
2022-11-07T10:05:38.219Z,100704.41
2022-11-07T10:08:10.094Z,100706.44
2022-11-07T10:10:41.592Z,100705.34
2022-11-07T10:13:13.582Z,100700.84
2022-11-07T10:15:45.325Z,100703.72
2022-11-07T10:18:17.237Z,100699.47
2022-11-07T10:20:48.766Z,100696.31
2022-11-07T10:23:20.683Z,100697.31
2022-11-07T10:25:52.169Z,100703.53
2022-11-07T10:28:24.077Z,100696.16
2022-11-07T10:30:55.557Z,100694.19
2022-11-07T10:33:27.509Z,100705.66
2022-11-07T10:35:58.998Z,100711.94
2022-11-07T10:38:30.822Z,100704.00
2022-11-07T10:41:02.683Z,100698.66
2022-11-07T10:43:34.697Z,100694.72
2022-11-07T10:46:06.605Z,100691.06
2022-11-07T10:48:38.099Z,100696.72
2022-11-07T10:51:10.046Z,100692.06
2022-11-07T10:53:41.530Z,100690.97
2022-11-07T10:56:13.376Z,100696.16
2022-11-07T10:58:44.880Z,100699.03
2022-11-07T11:01:16.700Z,100689.09
2022-11-07T11:03:49.623Z,100685.81
2022-11-07T11:06:21.511Z,100694.69
2022-11-07T11:08:53.012Z,100691.19
2022-11-07T11:11:24.907Z,100690.06
2022-11-07T11:13:56.419Z,100684.19
2022-11-07T11:16:28.370Z,100694.69
2022-11-07T11:18:59.862Z,100683.78
2022-11-07T11:21:31.659Z,100683.69
2022-11-07T11:24:03.155Z,100689.88
2022-11-07T11:26:34.995Z,100688.44
2022-11-07T11:29:06.513Z,100684.38
2022-11-07T11:31:38.407Z,100684.13
2022-11-07T11:34:09.896Z,100680.50
2022-11-07T11:36:41.726Z,100672.19
2022-11-07T11:39:13.235Z,100689.13
2022-11-07T11:41:45.168Z,100677.88
2022-11-07T11:44:16.693Z,100686.31
2022-11-07T11:46:48.577Z,100685.34
2022-11-07T11:49:20.078Z,100690.47
2022-11-07T11:51:52.009Z,100687.81
2022-11-07T11:54:23.533Z,100688.16
2022-11-07T11:56:55.357Z,100691.22
2022-11-07T11:59:26.858Z,100677.97
2022-11-07T12:01:58.857Z,100689.53
2022-11-07T12:04:30.381Z,100682.34
2022-11-07T12:07:02.162Z,100684.28
2022-11-07T12:09:33.960Z,100682.22
2022-11-07T12:12:05.528Z,100680.72
2022-11-07T12:14:37.765Z,100679.72
2022-11-07T12:17:09.741Z,100674.78
2022-11-07T12:19:41.233Z,100671.09
2022-11-07T12:22:12.730Z,100662.97
2022-11-07T12:24:44.230Z,100671.28
2022-11-07T12:27:16.151Z,100670.63
2022-11-07T12:29:47.647Z,100677.13
2022-11-07T12:32:19.556Z,100674.97
2022-11-07T12:34:51.054Z,100672.00
2022-11-07T12:37:22.602Z,100671.91
2022-11-07T12:39:54.081Z,100672.00
2022-11-07T12:42:26.060Z,100675.75
2022-11-07T12:44:57.596Z,100677.13
2022-11-07T12:47:29.566Z,100685.50
2022-11-07T12:50:01.159Z,100675.28
2022-11-07T12:52:34.164Z,100699.47
2022-11-07T12:55:05.666Z,100680.50
2022-11-07T12:57:37.161Z,100681.44
2022-11-07T13:00:09.537Z,100685.69
2022-11-07T13:02:41.610Z,100682.94
2022-11-07T13:05:13.147Z,100679.44
2022-11-07T13:07:44.980Z,100679.75
2022-11-07T13:10:16.490Z,100682.69
2022-11-07T13:12:48.498Z,100686.72
2022-11-07T13:15:20.302Z,100687.53
2022-11-07T13:17:51.794Z,100688.94
2022-11-07T13:20:23.301Z,100684.06
2022-11-07T13:22:54.860Z,100678.50
2022-11-07T13:25:26.612Z,100683.66
2022-11-07T13:27:58.461Z,100680.38
2022-11-07T13:30:30.296Z,100688.50
2022-11-07T13:33:01.783Z,100683.22
2022-11-07T13:35:33.666Z,100689.31
2022-11-07T13:38:08.729Z,100692.16
2022-11-07T13:40:40.809Z,100688.41
2022-11-07T13:43:12.294Z,100686.44
2022-11-07T13:45:44.169Z,100684.19
2022-11-07T13:48:15.776Z,100689.72
2022-11-07T13:50:47.731Z,100683.28
2022-11-07T13:53:19.606Z,100686.53
2022-11-07T13:55:51.575Z,100680.63
2022-11-07T13:58:24.501Z,100684.56
2022-11-07T14:00:56.498Z,100682.53
2022-11-07T14:03:28.111Z,100681.72
2022-11-07T14:05:59.640Z,100684.63
2022-11-07T14:08:31.424Z,100680.91
2022-11-07T14:11:03.023Z,100681.72
2022-11-07T14:13:39.638Z,100682.44
2022-11-07T14:16:12.907Z,100673.91
2022-11-07T14:18:44.420Z,100682.91
2022-11-07T14:21:16.220Z,100672.69
2022-11-07T14:23:47.720Z,100666.13
2022-11-07T14:26:19.317Z,100668.56
2022-11-07T14:28:50.856Z,100671.63
2022-11-07T14:31:22.650Z,100667.25
2022-11-07T14:33:54.149Z,100667.50
2022-11-07T14:36:26.038Z,100671.22
2022-11-07T14:38:57.548Z,100669.69
2022-11-07T14:41:29.661Z,100663.19
2022-11-07T14:44:01.152Z,100658.16
2022-11-07T14:46:33.135Z,100657.44
2022-11-07T14:49:04.690Z,100659.69
2022-11-07T14:51:36.831Z,100647.25
2022-11-07T14:54:08.342Z,100650.50
2022-11-07T14:56:40.380Z,100658.16
2022-11-07T14:59:11.887Z,100645.16
2022-11-07T15:01:44.174Z,100650.38
2022-11-07T15:04:15.771Z,100657.75
2022-11-07T15:06:47.597Z,100651.25
2022-11-07T15:09:19.491Z,100653.84
2022-11-07T15:11:51.289Z,100645.34
2022-11-07T15:14:22.833Z,100664.78
2022-11-07T15:16:54.719Z,100664.22
2022-11-07T15:19:26.510Z,100667.38
2022-11-07T15:21:58.373Z,100662.84
2022-11-07T15:24:29.873Z,100664.09
2022-11-07T15:27:01.487Z,100662.47
2022-11-07T15:29:33.523Z,100658.97
2022-11-07T15:32:05.608Z,100667.97
2022-11-07T15:34:58.776Z,100668.78
2022-11-07T15:37:28.983Z,100666.34
2022-11-07T15:40:00.649Z,100667.38
2022-11-07T15:42:32.655Z,100670.06
2022-11-07T15:45:04.149Z,100667.03
2022-11-07T15:47:36.053Z,100665.66
2022-11-07T15:50:07.555Z,100667.41
2022-11-07T15:52:39.060Z,100673.47
2022-11-07T15:55:10.539Z,100674.50
2022-11-07T15:57:42.552Z,100669.75
2022-11-07T16:00:14.040Z,100682.31
2022-11-07T16:02:45.966Z,100674.84
2022-11-07T16:05:17.752Z,100680.78
2022-11-07T16:07:49.275Z,100682.88
2022-11-07T16:10:21.951Z,100675.81
2022-11-07T16:12:53.450Z,100676.16
2022-11-07T16:15:25.335Z,100679.06
2022-11-07T16:17:56.840Z,100688.94
2022-11-07T16:20:30.291Z,100681.38
2022-11-07T16:23:02.449Z,100685.78
2022-11-07T16:25:34.140Z,100692.41
2022-11-07T16:28:06.106Z,100692.06
2022-11-07T16:30:37.938Z,100689.75
2022-11-07T16:33:09.440Z,100682.09
2022-11-07T16:35:40.967Z,100691.84
2022-11-07T16:38:12.463Z,100687.19
2022-11-07T16:40:44.404Z,100698.78
2022-11-07T16:43:15.995Z,100694.72
2022-11-07T16:45:47.927Z,100696.00
2022-11-07T16:48:19.494Z,100699.59
2022-11-07T16:50:51.337Z,100700.75
2022-11-07T16:53:22.820Z,100699.34
2022-11-07T16:55:54.668Z,100697.25
2022-11-07T16:58:26.236Z,100698.88
2022-11-07T17:00:58.463Z,100700.00
2022-11-07T17:03:30.048Z,100702.91
2022-11-07T17:06:01.850Z,100694.53
2022-11-07T17:08:33.353Z,100697.78
2022-11-07T17:11:05.339Z,100690.34
2022-11-07T17:13:36.835Z,100703.13
2022-11-07T17:16:08.872Z,100698.25
2022-11-07T17:18:40.771Z,100703.50
2022-11-07T17:21:12.541Z,100702.66
2022-11-07T17:23:44.037Z,100705.13
2022-11-07T17:26:15.895Z,100706.38
2022-11-07T17:28:47.407Z,100713.81
2022-11-07T17:31:19.242Z,100727.41
2022-11-07T17:33:51.100Z,100723.91
2022-11-07T17:36:23.504Z,100724.16
2022-11-07T17:38:55.519Z,100729.03
2022-11-07T17:41:30.030Z,100733.31
2022-11-07T17:44:02.985Z,100740.66
2022-11-07T17:46:34.495Z,100747.19
2022-11-07T17:49:09.452Z,100739.53
2022-11-07T17:51:42.020Z,100741.63
2022-11-07T17:54:13.594Z,100745.69
2022-11-07T17:56:45.146Z,100743.97
2022-11-07T17:59:16.667Z,100748.50
2022-11-07T18:01:49.348Z,100742.94
2022-11-07T18:04:21.270Z,100740.03
2022-11-07T18:06:52.766Z,100751.75
2022-11-07T18:09:24.521Z,100753.84
2022-11-07T18:11:56.001Z,100750.94
2022-11-07T18:14:27.761Z,100752.34
2022-11-07T18:16:59.301Z,100753.63
2022-11-07T18:19:30.978Z,100750.94
2022-11-07T18:22:02.530Z,100757.34
2022-11-07T18:24:34.376Z,100755.56
2022-11-07T18:27:10.337Z,100758.13
2022-11-07T18:29:42.524Z,100752.16
2022-11-07T18:32:14.108Z,100755.06
2022-11-07T18:34:45.964Z,100751.22
2022-11-07T18:37:18.774Z,100759.69
2022-11-07T18:39:50.843Z,100759.75
2022-11-07T18:42:22.557Z,100754.28
2022-11-07T18:44:54.384Z,100757.75
2022-11-07T18:47:25.911Z,100761.59
2022-11-07T18:49:57.768Z,100759.97
2022-11-07T18:52:31.402Z,100751.38
2022-11-07T18:55:03.297Z,100760.06
2022-11-07T18:57:34.892Z,100755.75
2022-11-07T19:00:12.085Z,100754.38
2022-11-07T19:02:44.857Z,100760.50
2022-11-07T19:05:17.785Z,100760.50
2022-11-07T19:07:49.716Z,100763.41
2022-11-07T19:10:21.575Z,100762.97
2022-11-07T19:12:53.087Z,100756.81
2022-11-07T19:15:27.345Z,100765.50
2022-11-07T19:17:58.846Z,100768.53
2022-11-07T19:20:30.668Z,100772.47
2022-11-07T19:23:02.216Z,100765.63
2022-11-07T19:25:34.037Z,100767.03
2022-11-07T19:28:06.099Z,100768.66
2022-11-07T19:30:37.970Z,100774.38
2022-11-07T19:33:09.463Z,100771.91
2022-11-07T19:35:41.315Z,100769.25
2022-11-07T19:38:12.800Z,100762.28
2022-11-07T19:40:44.635Z,100769.72
2022-11-07T19:43:16.401Z,100766.66
2022-11-07T19:45:48.774Z,100771.44
2022-11-07T19:48:20.340Z,100774.78
2022-11-07T19:50:52.228Z,100777.06
2022-11-07T19:53:23.728Z,100769.06
2022-11-07T19:55:55.232Z,100777.13
2022-11-07T19:58:26.742Z,100779.44
2022-11-07T20:00:58.935Z,100774.53
2022-11-07T20:03:30.853Z,100778.03
2022-11-07T20:06:02.743Z,100772.31
2022-11-07T20:08:34.515Z,100779.28
2022-11-07T20:11:06.033Z,100777.88
2022-11-07T20:13:37.893Z,100778.13
2022-11-07T20:16:09.504Z,100780.56
2022-11-07T20:18:41.410Z,100783.44
2022-11-07T20:21:13.141Z,100783.44
2022-11-07T20:23:44.714Z,100784.84
2022-11-07T20:26:16.305Z,100779.28
2022-11-07T20:28:48.409Z,100785.22
2022-11-07T20:31:19.950Z,100783.81
2022-11-07T20:33:52.015Z,100791.25
2022-11-07T20:36:23.523Z,100792.66
2022-11-07T20:38:55.411Z,100784.03
2022-11-07T20:41:27.249Z,100791.00
2022-11-07T20:44:00.285Z,100789.53
2022-11-07T20:46:32.825Z,100803.91
2022-11-07T20:49:04.839Z,100797.31
2022-11-07T20:51:36.355Z,100800.78
2022-11-07T20:54:08.178Z,100803.91
2022-11-07T20:56:39.663Z,100801.25
2022-11-07T20:59:11.533Z,100809.09
2022-11-07T21:01:43.182Z,100807.09
2022-11-07T21:04:15.702Z,100798.28
2022-11-07T21:06:47.206Z,100803.63
2022-11-07T21:09:20.211Z,100806.16
2022-11-07T21:11:51.757Z,100812.75
2022-11-07T21:14:23.655Z,100810.75
2022-11-07T21:16:55.156Z,100816.06
2022-11-07T21:19:29.458Z,100808.50
2022-11-07T21:22:00.983Z,100801.53
2022-11-07T21:24:32.804Z,100808.94
2022-11-07T21:27:05.856Z,100804.63
2022-11-07T21:29:37.699Z,100806.13
2022-11-07T21:32:09.242Z,100806.13
2022-11-07T21:34:41.277Z,100810.84
2022-11-07T21:37:12.755Z,100801.81
2022-11-07T21:39:44.613Z,100804.25
2022-11-07T21:42:16.462Z,100803.22
2022-11-07T21:44:48.010Z,100801.16
2022-11-07T21:47:19.561Z,100804.41
2022-11-07T21:49:51.528Z,100809.16
2022-11-07T21:52:23.072Z,100801.38
2022-11-07T21:54:54.875Z,100805.50
2022-11-07T21:57:26.381Z,100810.84
2022-11-07T21:59:58.220Z,100807.00
2022-11-07T22:02:29.858Z,100802.91
2022-11-07T22:05:01.503Z,100807.66
2022-11-07T22:07:34.725Z,100805.22
2022-11-07T22:10:06.247Z,100807.28
2022-11-07T22:12:37.764Z,100799.50
2022-11-07T22:15:10.520Z,100810.41
2022-11-07T22:17:42.007Z,100804.09
2022-11-07T22:20:13.540Z,100797.50
2022-11-07T22:22:45.024Z,100798.75
2022-11-07T22:25:16.841Z,100796.53
2022-11-07T22:27:48.919Z,100793.03
2022-11-07T22:30:20.753Z,100799.41
2022-11-07T22:32:52.833Z,100807.19
2022-11-07T22:35:24.336Z,100808.41
2022-11-07T22:37:56.335Z,100797.56
2022-11-07T22:40:27.841Z,100798.59
2022-11-07T22:42:59.662Z,100802.09
2022-11-07T22:45:31.159Z,100809.25
2022-11-07T22:48:03.220Z,100797.56
2022-11-07T22:50:34.715Z,100806.38
2022-11-07T22:53:06.655Z,100798.38
2022-11-07T22:55:38.161Z,100803.09
2022-11-07T22:58:10.137Z,100796.94
2022-11-07T23:00:41.662Z,100793.44
2022-11-07T23:03:13.387Z,100794.28
2022-11-07T23:05:44.931Z,100788.13
2022-11-07T23:08:16.900Z,100788.94
2022-11-07T23:10:48.539Z,100793.44
2022-11-07T23:13:20.533Z,100797.16
2022-11-07T23:15:52.082Z,100807.22
2022-11-07T23:18:23.947Z,100794.72
2022-11-07T23:21:10.547Z,100791.00
2022-11-07T23:23:42.577Z,100795.53
2022-11-07T23:26:14.118Z,100794.50
2022-11-07T23:28:45.650Z,100789.38
2022-11-07T23:31:17.155Z,100791.22
2022-11-07T23:33:49.017Z,100797.38
2022-11-07T23:36:20.503Z,100795.97
2022-11-07T23:38:52.377Z,100800.84
2022-11-07T23:41:23.894Z,100801.06
2022-11-07T23:43:55.736Z,100801.31
2022-11-07T23:47:05.981Z,100793.28
2022-11-07T23:49:56.830Z,100792.69
2022-11-07T23:52:28.770Z,100795.81
2022-11-07T23:55:18.877Z,100783.50
2022-11-07T23:58:09.362Z,100783.56
